createdAt,value
2023-09-09T00:02:50.639Z,7.32
2023-09-09T00:07:52.499Z,7.43
2023-09-09T00:12:54.223Z,7.25
2023-09-09T00:17:55.969Z,7.28
2023-09-09T00:22:58.288Z,6.57
2023-09-09T00:27:59.947Z,7.18
2023-09-09T00:33:02.219Z,7.05
2023-09-09T00:38:04.247Z,6.97
2023-09-09T00:43:05.995Z,6.28
2023-09-09T00:48:08.323Z,7.07
2023-09-09T00:53:10.395Z,6.03
2023-09-09T00:58:12.474Z,6.40
2023-09-09T01:03:14.351Z,6.55
2023-09-09T01:08:28.590Z,7.30
2023-09-09T01:13:31.604Z,6.88
2023-09-09T01:18:36.192Z,6.30
2023-09-09T01:23:39.986Z,6.32
2023-09-09T01:28:43.241Z,5.95
2023-09-09T01:33:45.043Z,5.88
2023-09-09T01:38:46.724Z,5.07
2023-09-09T01:43:48.675Z,5.97
2023-09-09T01:48:50.480Z,6.13
2023-09-09T01:53:52.226Z,5.65
2023-09-09T01:58:53.939Z,6.22
2023-09-09T02:03:55.771Z,5.32
2023-09-09T02:08:57.721Z,6.28
2023-09-09T02:13:59.884Z,5.20
2023-09-09T02:19:01.677Z,6.60
2023-09-09T02:24:03.978Z,6.30
2023-09-09T02:29:05.637Z,6.47
2023-09-09T02:34:07.462Z,5.82
2023-09-09T02:39:09.198Z,6.05
2023-09-09T02:44:10.884Z,5.75
2023-09-09T02:49:12.589Z,6.28
2023-09-09T02:54:14.310Z,6.75
2023-09-09T02:59:16.151Z,6.53
2023-09-09T03:04:18.541Z,6.07
2023-09-09T03:09:21.838Z,6.18
2023-09-09T03:14:23.879Z,6.82
2023-09-09T03:19:26.442Z,6.15
2023-09-09T03:24:28.373Z,6.85
2023-09-09T03:29:30.306Z,7.07
2023-09-09T03:34:32.172Z,6.00
2023-09-09T03:39:33.991Z,5.95
2023-09-09T03:44:36.043Z,6.30
2023-09-09T03:49:37.855Z,5.95
2023-09-09T03:54:39.732Z,6.70
2023-09-09T03:59:42.127Z,6.45
2023-09-09T04:04:43.940Z,6.20
2023-09-09T04:09:45.776Z,6.90
2023-09-09T04:14:47.958Z,6.95
2023-09-09T04:19:50.428Z,6.15
2023-09-09T04:24:54.956Z,6.50
2023-09-09T04:29:57.095Z,6.40
2023-09-09T04:34:59.228Z,6.32
2023-09-09T04:40:01.087Z,6.55
2023-09-09T04:45:04.614Z,6.75
2023-09-09T04:50:07.797Z,6.88
2023-09-09T04:55:09.720Z,6.38
2023-09-09T05:00:11.921Z,7.80
2023-09-09T05:05:14.182Z,6.22
2023-09-09T05:10:16.300Z,6.90
2023-09-09T05:15:18.337Z,6.53
2023-09-09T05:20:20.541Z,6.78
2023-09-09T05:25:22.595Z,6.53
2023-09-09T05:30:24.312Z,5.93
2023-09-09T05:35:26.044Z,6.65
2023-09-09T05:40:27.890Z,5.82
2023-09-09T05:45:29.886Z,6.07
2023-09-09T05:50:31.664Z,5.55
2023-09-09T05:55:33.429Z,5.43
2023-09-09T06:00:35.487Z,5.30
2023-09-09T06:05:37.206Z,5.60
2023-09-09T06:10:39.296Z,4.85
2023-09-09T06:15:41.146Z,4.80
2023-09-09T06:20:49.619Z,4.88
2023-09-09T06:25:52.154Z,4.15
2023-09-09T06:30:54.638Z,5.15
2023-09-09T06:35:57.007Z,5.07
2023-09-09T06:41:00.360Z,5.10
2023-09-09T06:46:02.065Z,4.43
2023-09-09T06:51:04.163Z,4.97
2023-09-09T06:56:06.289Z,4.85
2023-09-09T07:01:08.001Z,4.75
2023-09-09T07:06:09.758Z,5.35
2023-09-09T07:11:12.556Z,5.10
2023-09-09T07:16:14.401Z,5.15
2023-09-09T07:21:16.037Z,4.80
2023-09-09T07:26:19.231Z,4.47
2023-09-09T07:31:21.163Z,5.07
2023-09-09T07:36:22.858Z,5.28
2023-09-09T07:41:24.565Z,5.30
2023-09-09T07:46:26.423Z,5.30
2023-09-09T07:51:29.065Z,5.10
2023-09-09T07:56:30.791Z,4.63
2023-09-09T08:01:32.519Z,4.60
2023-09-09T08:06:34.240Z,4.03
2023-09-09T08:11:35.951Z,4.75
2023-09-09T08:16:37.879Z,4.18
2023-09-09T08:21:39.844Z,4.15
2023-09-09T08:26:41.789Z,4.32
2023-09-09T08:31:44.135Z,4.78
2023-09-09T08:36:45.909Z,4.88
2023-09-09T08:42:13.480Z,3.97
2023-09-09T08:47:17.110Z,4.13
2023-09-09T08:52:25.881Z,3.95
2023-09-09T08:57:29.499Z,4.05
2023-09-09T09:02:31.793Z,4.28
2023-09-09T09:07:35.341Z,4.25
2023-09-09T09:12:37.668Z,3.92
2023-09-09T09:17:42.156Z,3.80
2023-09-09T09:22:43.963Z,4.20
2023-09-09T09:27:45.604Z,4.25
2023-09-09T09:32:47.278Z,3.97
2023-09-09T09:38:16.462Z,4.32
2023-09-09T09:43:19.976Z,3.95
2023-09-09T09:48:28.780Z,3.95
2023-09-09T09:53:30.454Z,3.75
2023-09-09T09:58:33.868Z,3.92
2023-09-09T10:03:49.941Z,4.07
2023-09-09T10:08:58.725Z,3.50
2023-09-09T10:14:06.376Z,4.18
2023-09-09T10:19:09.826Z,3.03
2023-09-09T10:24:12.225Z,3.67
2023-09-09T10:29:14.945Z,3.58
2023-09-09T10:34:17.461Z,3.30
2023-09-09T10:39:20.824Z,2.83
2023-09-09T10:44:22.606Z,3.53
2023-09-09T10:49:26.995Z,3.65
2023-09-09T10:54:28.755Z,2.97
2023-09-09T10:59:33.183Z,2.78
2023-09-09T11:04:37.978Z,3.45
2023-09-09T11:14:45.203Z,2.72
2023-09-09T11:19:47.440Z,3.08
2023-09-09T11:24:49.407Z,3.28
2023-09-09T11:29:54.718Z,3.67
2023-09-09T11:34:57.626Z,3.80
2023-09-09T11:40:00.052Z,3.97
2023-09-09T11:45:03.268Z,3.67
2023-09-09T11:50:07.673Z,3.30
2023-09-09T11:55:09.649Z,3.80
2023-09-09T12:00:12.202Z,3.47
2023-09-09T12:05:16.046Z,3.17
2023-09-09T12:10:17.811Z,3.42
2023-09-09T12:15:19.866Z,3.33
2023-09-09T12:20:21.693Z,4.88
2023-09-09T12:25:36.344Z,3.38
2023-09-09T12:30:42.436Z,3.33
2023-09-09T12:35:46.099Z,3.30
2023-09-09T12:40:54.765Z,3.17
2023-09-09T12:46:19.258Z,3.10
2023-09-09T12:51:22.446Z,3.00
2023-09-09T12:56:24.084Z,2.92
2023-09-09T13:01:25.997Z,3.00
2023-09-09T13:06:28.126Z,3.00
2023-09-09T13:11:30.674Z,3.67
2023-09-09T13:16:32.616Z,3.40
2023-09-09T13:21:34.322Z,3.33
2023-09-09T13:26:35.989Z,3.35
2023-09-09T13:31:37.684Z,3.30
2023-09-09T13:36:39.341Z,4.10
2023-09-09T13:41:41.121Z,3.17
2023-09-09T13:46:43.022Z,3.55
2023-09-09T13:51:44.686Z,3.35
2023-09-09T13:56:46.405Z,3.40
2023-09-09T14:01:48.939Z,3.60
2023-09-09T14:06:50.675Z,3.15
2023-09-09T14:11:52.310Z,3.55
2023-09-09T14:16:56.441Z,3.60
2023-09-09T14:21:58.187Z,3.95
2023-09-09T14:27:00.003Z,4.50
2023-09-09T14:32:01.749Z,3.63
2023-09-09T14:37:04.524Z,4.07
2023-09-09T14:42:06.499Z,4.13
2023-09-09T14:47:08.176Z,4.13
2023-09-09T14:52:10.657Z,3.88
2023-09-09T14:57:12.391Z,5.60
2023-09-09T15:02:14.048Z,3.55
2023-09-09T15:07:16.023Z,4.07
2023-09-09T15:12:18.393Z,4.13
2023-09-09T15:17:20.161Z,4.20
2023-09-09T15:22:21.865Z,3.53
2023-09-09T15:27:23.570Z,4.10
2023-09-09T15:32:25.365Z,3.90
2023-09-09T15:37:27.167Z,4.05
2023-09-09T15:42:28.935Z,4.18
2023-09-09T15:47:30.637Z,3.75
2023-09-09T15:52:32.315Z,4.00
2023-09-09T15:57:33.986Z,3.83
2023-09-09T16:02:35.783Z,3.95
2023-09-09T16:07:39.066Z,3.33
2023-09-09T16:12:40.901Z,3.47
2023-09-09T16:17:43.465Z,3.80
2023-09-09T16:22:45.169Z,3.75
2023-09-09T16:27:46.920Z,4.10
2023-09-09T16:32:48.669Z,3.78
2023-09-09T16:37:50.493Z,3.67
2023-09-09T16:42:52.274Z,3.60
2023-09-09T16:47:54.018Z,3.53
2023-09-09T16:52:55.817Z,3.95
2023-09-09T16:57:57.534Z,3.60
2023-09-09T17:02:59.289Z,3.75
2023-09-09T17:08:02.732Z,4.00
2023-09-09T17:13:04.533Z,3.88
2023-09-09T17:18:06.347Z,4.55
2023-09-09T17:23:08.186Z,4.57
2023-09-09T17:28:10.271Z,4.78
2023-09-09T17:33:12.000Z,3.88
2023-09-09T17:38:13.973Z,4.60
2023-09-09T17:43:15.646Z,4.70
2023-09-09T17:48:17.347Z,5.05
2023-09-09T17:53:19.052Z,4.82
2023-09-09T17:58:20.722Z,4.90
2023-09-09T18:03:22.583Z,4.78
2023-09-09T18:08:24.229Z,5.28
2023-09-09T18:13:25.995Z,4.78
2023-09-09T18:18:27.922Z,4.65
2023-09-09T18:23:29.682Z,4.95
2023-09-09T18:28:31.485Z,4.85
2023-09-09T18:33:33.193Z,4.38
2023-09-09T18:38:35.299Z,4.55
2023-09-09T18:43:37.138Z,4.18
2023-09-09T18:48:39.025Z,3.75
2023-09-09T18:53:41.040Z,3.22
2023-09-09T18:58:42.721Z,4.95
2023-09-09T19:03:44.845Z,4.82
2023-09-09T19:08:46.985Z,6.22
2023-09-09T19:13:53.974Z,6.78
2023-09-09T19:18:55.931Z,7.72
2023-09-09T19:23:57.676Z,6.85
2023-09-09T19:28:59.491Z,7.30
2023-09-09T19:34:01.265Z,7.20
2023-09-09T19:39:03.917Z,6.22
2023-09-09T19:44:05.711Z,7.70
2023-09-09T19:49:09.900Z,7.32
2023-09-09T19:54:14.250Z,7.45
2023-09-09T19:59:16.123Z,8.35
2023-09-09T20:04:17.798Z,9.43
2023-09-09T20:09:19.539Z,11.15
2023-09-09T20:14:21.257Z,12.32
2023-09-09T20:19:23.015Z,13.05
2023-09-09T20:24:24.703Z,11.38
2023-09-09T20:29:26.396Z,13.05
2023-09-09T20:34:28.138Z,11.25
2023-09-09T20:39:29.841Z,9.75
2023-09-09T20:44:31.953Z,9.55
2023-09-09T20:49:33.702Z,8.73
2023-09-09T20:54:35.392Z,8.25
2023-09-09T20:59:37.131Z,8.30
2023-09-09T21:04:39.197Z,8.95
2023-09-09T21:09:40.973Z,9.40
2023-09-09T21:14:42.735Z,7.68
2023-09-09T21:19:44.424Z,7.68
2023-09-09T21:24:46.105Z,9.68
2023-09-09T21:29:47.789Z,8.63
2023-09-09T21:34:52.021Z,8.18
2023-09-09T21:39:53.948Z,9.90
2023-09-09T21:44:56.684Z,8.40
2023-09-09T21:49:58.523Z,8.95
2023-09-09T21:55:00.255Z,9.15
2023-09-09T22:00:02.156Z,8.57
2023-09-09T22:05:06.879Z,9.25
2023-09-09T22:10:09.165Z,9.25
2023-09-09T22:15:11.753Z,8.73
2023-09-09T22:25:19.026Z,7.53
2023-09-09T22:30:20.954Z,8.07
2023-09-09T22:35:27.202Z,8.57
2023-09-09T22:40:28.980Z,8.52
2023-09-09T22:45:30.769Z,8.02
2023-09-09T22:50:33.649Z,8.30
2023-09-09T22:55:35.600Z,7.82
2023-09-09T23:00:37.263Z,8.30
2023-09-09T23:05:39.009Z,7.80
2023-09-09T23:10:40.739Z,8.18
2023-09-09T23:15:46.631Z,8.20
2023-09-09T23:20:48.395Z,8.27
2023-09-09T23:25:52.734Z,8.23
2023-09-09T23:31:01.625Z,7.75
2023-09-09T23:36:04.316Z,7.68
2023-09-09T23:41:06.329Z,7.82
2023-09-09T23:46:08.298Z,7.13
2023-09-09T23:51:10.127Z,9.00
2023-09-09T23:56:11.833Z,8.00
